createdAt,value
2023-03-29T00:00:07.929Z,28.97
2023-03-29T00:00:38.012Z,28.88
2023-03-29T00:01:08.099Z,28.94
2023-03-29T00:01:38.176Z,28.90
2023-03-29T00:02:08.307Z,28.90
2023-03-29T00:02:38.464Z,28.88
2023-03-29T00:03:08.483Z,28.93
2023-03-29T00:03:38.539Z,28.91
2023-03-29T00:04:08.510Z,28.94
2023-03-29T00:04:38.563Z,28.93
2023-03-29T00:05:08.512Z,28.93
2023-03-29T00:05:38.659Z,28.96
2023-03-29T00:06:08.714Z,28.94
2023-03-29T00:06:38.797Z,28.96
2023-03-29T00:07:08.886Z,28.91
2023-03-29T00:07:38.968Z,28.96
2023-03-29T00:08:08.951Z,28.96
2023-03-29T00:08:39.046Z,28.85
2023-03-29T00:09:09.115Z,28.97
2023-03-29T00:09:39.191Z,28.91
2023-03-29T00:10:09.291Z,28.93
2023-03-29T00:10:39.284Z,28.85
2023-03-29T00:11:09.400Z,28.90
2023-03-29T00:11:39.395Z,28.91
2023-03-29T00:12:39.467Z,28.90
2023-03-29T00:13:09.462Z,28.97
2023-03-29T00:14:09.581Z,28.91
2023-03-29T00:14:39.563Z,28.93
2023-03-29T00:15:09.581Z,28.90
2023-03-29T00:16:09.645Z,28.95
2023-03-29T00:16:39.826Z,28.91
2023-03-29T00:17:09.824Z,28.93
2023-03-29T00:17:39.855Z,28.91
2023-03-29T00:18:09.865Z,28.88
2023-03-29T00:18:39.866Z,28.91
2023-03-29T00:19:09.857Z,28.91
2023-03-29T00:20:09.936Z,28.90
2023-03-29T00:20:39.952Z,28.93
2023-03-29T00:21:40.002Z,28.97
2023-03-29T00:22:09.995Z,28.91
2023-03-29T00:23:10.070Z,28.95
2023-03-29T00:23:40.066Z,28.99
2023-03-29T00:24:40.182Z,28.90
2023-03-29T00:25:10.301Z,28.95
2023-03-29T00:25:40.300Z,28.83
2023-03-29T00:26:40.381Z,28.88
2023-03-29T00:27:10.377Z,28.87
2023-03-29T00:27:40.400Z,28.80
2023-03-29T00:28:40.449Z,28.85
2023-03-29T00:29:10.567Z,28.90
2023-03-29T00:29:40.682Z,28.86
2023-03-29T00:30:10.700Z,28.83
2023-03-29T00:31:10.820Z,28.89
2023-03-29T00:31:40.809Z,28.86
2023-03-29T00:32:10.799Z,28.85
2023-03-29T00:33:10.885Z,28.80
2023-03-29T00:33:40.913Z,28.85
2023-03-29T00:34:10.988Z,28.85
2023-03-29T00:34:40.979Z,28.80
2023-03-29T00:35:11.002Z,28.86
2023-03-29T00:35:41.164Z,28.88
2023-03-29T00:36:11.173Z,28.89
2023-03-29T00:36:41.145Z,28.86
2023-03-29T00:37:41.273Z,28.89
2023-03-29T00:38:11.322Z,28.86
2023-03-29T00:38:41.322Z,28.83
2023-03-29T00:39:11.431Z,28.91
2023-03-29T00:39:41.430Z,28.95
2023-03-29T00:40:41.501Z,28.88
2023-03-29T00:41:11.492Z,28.92
2023-03-29T00:42:11.573Z,28.86
2023-03-29T00:42:41.586Z,28.91
2023-03-29T00:43:41.656Z,28.92
2023-03-29T00:44:11.651Z,28.86
2023-03-29T00:44:41.770Z,28.80
2023-03-29T00:45:12.082Z,28.82
2023-03-29T00:45:41.943Z,28.85
2023-03-29T00:46:42.117Z,28.86
2023-03-29T00:47:12.110Z,28.88
2023-03-29T00:47:42.168Z,28.85
2023-03-29T00:48:12.249Z,28.89
2023-03-29T00:48:42.295Z,28.89
2023-03-29T00:49:12.301Z,28.86
2023-03-29T00:49:42.422Z,28.86
2023-03-29T00:50:12.453Z,28.88
2023-03-29T00:50:42.503Z,28.89
2023-03-29T00:51:12.469Z,28.86
2023-03-29T00:51:42.622Z,28.89
2023-03-29T00:52:12.595Z,28.92
2023-03-29T00:52:42.713Z,28.89
2023-03-29T00:53:12.826Z,28.92
2023-03-29T00:53:42.946Z,28.91
2023-03-29T00:54:12.943Z,28.95
2023-03-29T00:54:43.062Z,28.92
2023-03-29T00:55:13.185Z,28.94
2023-03-29T00:55:43.182Z,28.86
2023-03-29T00:56:43.351Z,28.90
2023-03-29T00:57:13.363Z,28.91
2023-03-29T00:57:43.379Z,28.92
2023-03-29T00:58:13.490Z,28.94
2023-03-29T00:58:43.503Z,28.86
2023-03-29T00:59:43.557Z,28.86
2023-03-29T01:00:52.531Z,28.89
2023-03-29T01:01:22.732Z,28.94
2023-03-29T01:01:52.763Z,28.87
2023-03-29T01:02:22.790Z,28.93
2023-03-29T01:02:52.843Z,28.90
2023-03-29T01:03:22.914Z,28.92
2023-03-29T01:03:52.941Z,28.90
2023-03-29T01:04:22.946Z,28.95
2023-03-29T01:04:53.033Z,28.94
2023-03-29T01:05:23.123Z,28.90
2023-03-29T01:05:53.198Z,28.87
2023-03-29T01:06:23.295Z,28.87
2023-03-29T01:06:53.415Z,28.95
2023-03-29T01:07:23.364Z,28.89
2023-03-29T01:07:53.452Z,28.93
2023-03-29T01:08:23.539Z,28.92
2023-03-29T01:08:53.612Z,28.92
2023-03-29T01:09:23.697Z,28.90
2023-03-29T01:09:53.846Z,28.87
2023-03-29T01:10:23.801Z,28.90
2023-03-29T01:11:23.873Z,28.93
2023-03-29T01:11:53.989Z,28.92
2023-03-29T01:12:23.986Z,28.90
2023-03-29T01:13:24.059Z,28.88
2023-03-29T01:13:54.054Z,28.90
2023-03-29T01:14:24.179Z,28.86
2023-03-29T01:14:54.330Z,28.87
2023-03-29T01:15:24.312Z,28.85
2023-03-29T01:15:54.428Z,28.89
2023-03-29T01:16:24.454Z,28.85
2023-03-29T01:17:24.560Z,28.89
2023-03-29T01:17:54.566Z,28.94
2023-03-29T01:18:24.575Z,28.89
2023-03-29T01:18:54.686Z,28.92
2023-03-29T01:19:24.804Z,28.90
2023-03-29T01:19:54.942Z,28.87
2023-03-29T01:20:24.941Z,28.87
2023-03-29T01:21:25.015Z,28.84
2023-03-29T01:21:55.002Z,28.84
2023-03-29T01:22:25.144Z,28.86
2023-03-29T01:22:55.243Z,28.81
2023-03-29T01:23:25.231Z,28.84
2023-03-29T01:23:55.360Z,28.84
2023-03-29T01:24:25.465Z,28.81
2023-03-29T01:24:55.478Z,28.81
2023-03-29T01:25:25.468Z,28.75
2023-03-29T01:26:25.554Z,28.74
2023-03-29T01:26:55.541Z,28.77
2023-03-29T01:27:25.671Z,28.77
2023-03-29T01:27:55.659Z,28.75
2023-03-29T01:28:25.776Z,28.79
2023-03-29T01:28:55.897Z,28.83
2023-03-29T01:29:25.901Z,28.75
2023-03-29T01:29:56.021Z,28.79
2023-03-29T01:30:26.018Z,28.78
2023-03-29T01:30:56.133Z,28.77
2023-03-29T01:31:26.317Z,28.75
2023-03-29T01:31:56.319Z,28.77
2023-03-29T01:32:26.380Z,28.86
2023-03-29T01:32:56.389Z,28.83
2023-03-29T01:33:26.376Z,28.81
2023-03-29T01:33:56.492Z,28.83
2023-03-29T01:34:26.609Z,28.74
2023-03-29T01:34:56.653Z,28.81
2023-03-29T01:35:26.616Z,28.81
2023-03-29T01:35:56.661Z,28.78
2023-03-29T01:36:26.631Z,28.79
2023-03-29T01:36:56.623Z,28.79
2023-03-29T01:37:56.796Z,28.84
2023-03-29T01:38:26.795Z,28.82
2023-03-29T01:38:56.786Z,28.81
2023-03-29T01:39:26.904Z,28.79
2023-03-29T01:39:56.902Z,28.84
2023-03-29T01:40:27.021Z,28.84
2023-03-29T01:40:57.016Z,28.84
2023-03-29T01:41:57.086Z,28.82
2023-03-29T01:42:27.199Z,28.84
2023-03-29T01:42:57.325Z,28.81
2023-03-29T01:43:27.439Z,28.84
2023-03-29T01:43:57.558Z,28.84
2023-03-29T01:44:27.558Z,28.81
2023-03-29T01:44:57.667Z,28.82
2023-03-29T01:45:27.798Z,28.84
2023-03-29T01:45:57.807Z,28.81
2023-03-29T01:46:27.867Z,28.81
2023-03-29T01:46:57.876Z,28.79
2023-03-29T01:47:28.048Z,28.82
2023-03-29T01:47:58.132Z,28.84
2023-03-29T01:48:28.118Z,28.85
2023-03-29T01:48:58.109Z,28.84
2023-03-29T01:49:28.237Z,28.85
2023-03-29T01:49:58.348Z,28.80
2023-03-29T01:50:28.346Z,28.84
2023-03-29T01:50:58.462Z,28.79
2023-03-29T01:51:28.584Z,28.84
2023-03-29T01:51:58.589Z,28.87
2023-03-29T01:52:28.591Z,28.84
2023-03-29T01:52:58.716Z,28.80
2023-03-29T01:53:28.764Z,28.87
2023-03-29T01:53:58.851Z,28.90
2023-03-29T01:54:28.841Z,28.82
2023-03-29T01:55:28.910Z,28.88
2023-03-29T01:55:59.036Z,28.85
2023-03-29T01:56:29.145Z,28.85
2023-03-29T01:56:59.191Z,28.88
2023-03-29T01:57:29.255Z,28.82
2023-03-29T01:57:59.247Z,28.79
2023-03-29T01:58:59.350Z,28.74
2023-03-29T01:59:29.463Z,28.79
2023-03-29T01:59:59.451Z,28.79
2023-03-29T02:00:29.599Z,28.76
2023-03-29T02:00:59.866Z,28.74
2023-03-29T02:01:29.753Z,28.73
2023-03-29T02:02:00.093Z,28.67
2023-03-29T02:02:29.960Z,28.73
2023-03-29T02:03:00.069Z,28.68
2023-03-29T02:03:30.074Z,28.78
2023-03-29T02:04:00.106Z,28.82
2023-03-29T02:04:30.166Z,28.79
2023-03-29T02:05:00.246Z,28.83
2023-03-29T02:05:30.332Z,28.85
2023-03-29T02:06:00.426Z,28.83
2023-03-29T02:06:30.499Z,28.80
2023-03-29T02:07:00.588Z,28.83
2023-03-29T02:07:30.748Z,28.85
2023-03-29T02:08:00.782Z,28.85
2023-03-29T02:08:30.868Z,28.80
2023-03-29T02:09:00.978Z,28.83
2023-03-29T02:09:31.030Z,28.80
2023-03-29T02:10:01.113Z,28.78
2023-03-29T02:10:31.210Z,28.82
2023-03-29T02:11:01.576Z,28.82
2023-03-29T02:11:31.234Z,28.78
2023-03-29T02:12:01.359Z,28.82
2023-03-29T02:12:31.353Z,28.80
2023-03-29T02:13:31.419Z,28.82
2023-03-29T02:14:01.414Z,28.79
2023-03-29T02:14:31.550Z,28.82
2023-03-29T02:15:01.658Z,28.74
2023-03-29T02:15:31.681Z,28.73
2023-03-29T02:16:01.798Z,28.79
2023-03-29T02:16:31.797Z,28.78
2023-03-29T02:17:01.793Z,28.74
2023-03-29T02:18:01.904Z,28.77
2023-03-29T02:18:31.882Z,28.68
2023-03-29T02:19:31.956Z,28.65
2023-03-29T02:20:01.958Z,28.67
2023-03-29T02:20:32.002Z,28.67
2023-03-29T02:21:02.212Z,28.68
2023-03-29T02:21:32.001Z,28.65
2023-03-29T02:22:02.132Z,28.71
2023-03-29T02:22:32.112Z,28.76
2023-03-29T02:23:02.226Z,28.70
2023-03-29T02:23:32.341Z,28.71
2023-03-29T02:24:02.336Z,28.73
2023-03-29T02:24:32.363Z,28.76
2023-03-29T02:25:32.438Z,28.79
2023-03-29T02:26:02.430Z,28.76
2023-03-29T02:27:02.488Z,28.74
2023-03-29T02:27:32.609Z,28.73
2023-03-29T02:28:02.624Z,28.71
2023-03-29T02:29:02.681Z,28.69
2023-03-29T02:29:32.678Z,28.71
2023-03-29T02:30:02.792Z,28.71
2023-03-29T02:30:32.907Z,28.71
2023-03-29T02:31:03.192Z,28.71
2023-03-29T02:31:33.046Z,28.70
2023-03-29T02:32:03.038Z,28.74
2023-03-29T02:32:33.078Z,28.67
2023-03-29T02:33:03.137Z,28.74
2023-03-29T02:33:33.135Z,28.71
2023-03-29T02:34:03.127Z,28.70
2023-03-29T02:34:33.239Z,28.70
2023-03-29T02:35:03.235Z,28.70
2023-03-29T02:35:33.257Z,28.76
2023-03-29T02:36:03.285Z,28.73
2023-03-29T02:36:33.313Z,28.70
2023-03-29T02:37:03.431Z,28.68
2023-03-29T02:37:33.547Z,28.71
2023-03-29T02:38:03.555Z,28.67
2023-03-29T02:38:33.546Z,28.65
2023-03-29T02:39:03.665Z,28.74
2023-03-29T02:39:33.881Z,28.69
2023-03-29T02:40:03.883Z,28.74
2023-03-29T02:40:33.920Z,28.74
2023-03-29T02:41:04.143Z,28.70
2023-03-29T02:41:33.995Z,28.71
2023-03-29T02:42:04.004Z,28.67
2023-03-29T02:42:34.170Z,28.72
2023-03-29T02:43:04.197Z,28.69
2023-03-29T02:43:34.218Z,28.73
2023-03-29T02:44:04.242Z,28.76
2023-03-29T02:44:34.209Z,28.73
2023-03-29T02:45:04.327Z,28.69
2023-03-29T02:45:34.451Z,28.74
2023-03-29T02:46:04.584Z,28.75
2023-03-29T02:46:34.725Z,28.74
2023-03-29T02:47:04.692Z,28.77
2023-03-29T02:47:34.804Z,28.76
2023-03-29T02:48:34.769Z,28.72
2023-03-29T02:49:04.889Z,28.74
2023-03-29T02:49:35.005Z,28.74
2023-03-29T02:50:05.001Z,28.78
2023-03-29T02:50:35.086Z,28.78
2023-03-29T02:51:05.208Z,28.78
2023-03-29T02:51:35.202Z,28.77
2023-03-29T02:52:35.303Z,28.84
2023-03-29T02:53:05.290Z,28.87
2023-03-29T02:53:35.302Z,28.85
2023-03-29T02:54:05.422Z,28.82
2023-03-29T02:54:35.554Z,28.84
2023-03-29T02:55:05.535Z,28.84
2023-03-29T02:55:35.556Z,28.87
2023-03-29T02:56:05.656Z,28.88
2023-03-29T02:56:35.647Z,28.84
2023-03-29T02:57:35.724Z,28.77
2023-03-29T02:58:05.734Z,28.75
2023-03-29T02:59:05.830Z,28.71
2023-03-29T02:59:35.970Z,28.74
2023-03-29T03:00:05.956Z,28.72
2023-03-29T03:00:36.055Z,28.71
2023-03-29T03:01:06.135Z,28.65
2023-03-29T03:01:36.241Z,28.67
2023-03-29T03:02:06.290Z,28.67
2023-03-29T03:02:36.332Z,28.65
2023-03-29T03:03:06.423Z,28.66
2023-03-29T03:03:36.528Z,28.58
2023-03-29T03:04:06.595Z,28.60
2023-03-29T03:04:36.557Z,28.58
2023-03-29T03:05:06.649Z,28.58
2023-03-29T03:05:36.724Z,28.57
2023-03-29T03:06:06.806Z,28.55
2023-03-29T03:06:36.896Z,28.58
2023-03-29T03:07:06.962Z,28.54
2023-03-29T03:07:37.044Z,28.54
2023-03-29T03:08:07.127Z,28.51
2023-03-29T03:08:37.209Z,28.52
2023-03-29T03:09:07.289Z,28.52
2023-03-29T03:09:37.373Z,28.52
2023-03-29T03:10:07.459Z,28.51
2023-03-29T03:10:37.556Z,28.46
2023-03-29T03:11:07.723Z,28.50
2023-03-29T03:11:37.695Z,28.44
2023-03-29T03:12:07.817Z,28.47
2023-03-29T03:12:37.932Z,28.47
2023-03-29T03:13:08.045Z,28.54
2023-03-29T03:13:38.043Z,28.47
2023-03-29T03:14:08.155Z,28.42
2023-03-29T03:14:38.151Z,28.44
2023-03-29T03:15:08.184Z,28.48
2023-03-29T03:15:38.165Z,28.44
2023-03-29T03:16:08.314Z,28.44
2023-03-29T03:16:38.344Z,28.44
2023-03-29T03:17:08.328Z,28.46
2023-03-29T03:17:38.474Z,28.35
2023-03-29T03:18:08.525Z,28.44
2023-03-29T03:18:38.537Z,28.41
2023-03-29T03:19:08.648Z,28.43
2023-03-29T03:19:38.678Z,28.38
2023-03-29T03:20:08.668Z,28.34
2023-03-29T03:20:38.783Z,28.36
2023-03-29T03:21:08.901Z,28.34
2023-03-29T03:21:38.896Z,28.32
2023-03-29T03:22:09.035Z,28.35
2023-03-29T03:22:39.038Z,28.38
2023-03-29T03:23:09.038Z,28.32
2023-03-29T03:24:09.116Z,28.35
2023-03-29T03:24:39.094Z,28.28
2023-03-29T03:25:09.213Z,28.28
2023-03-29T03:25:39.338Z,28.32
2023-03-29T03:26:09.448Z,28.29
2023-03-29T03:26:39.465Z,28.34
2023-03-29T03:27:09.567Z,28.31
2023-03-29T03:27:39.568Z,28.31
2023-03-29T03:28:09.561Z,28.34
2023-03-29T03:28:39.678Z,28.28
2023-03-29T03:29:09.802Z,28.31
2023-03-29T03:29:39.791Z,28.26
2023-03-29T03:30:09.915Z,28.31
2023-03-29T03:30:40.028Z,28.23
2023-03-29T03:31:10.059Z,28.23
2023-03-29T03:31:40.074Z,28.26
2023-03-29T03:32:10.087Z,28.31
2023-03-29T03:32:40.143Z,28.28
2023-03-29T03:33:10.138Z,28.26
2023-03-29T03:33:40.254Z,28.24
2023-03-29T03:34:10.379Z,28.28
2023-03-29T03:34:40.377Z,28.31
2023-03-29T03:35:10.493Z,28.29
2023-03-29T03:35:40.641Z,28.31
2023-03-29T03:36:10.740Z,28.25
2023-03-29T03:36:40.758Z,28.25
2023-03-29T03:37:10.847Z,28.19
2023-03-29T03:37:40.857Z,28.26
2023-03-29T03:38:10.897Z,28.25
2023-03-29T03:38:40.885Z,28.25
2023-03-29T03:39:10.876Z,28.28
2023-03-29T03:40:10.958Z,28.25
2023-03-29T03:40:40.963Z,28.23
2023-03-29T03:41:11.086Z,28.23
2023-03-29T03:41:41.080Z,28.26
2023-03-29T03:42:11.121Z,28.22
2023-03-29T03:42:41.104Z,28.22
2023-03-29T03:43:11.204Z,28.29
2023-03-29T03:43:41.193Z,28.23
2023-03-29T03:44:41.262Z,28.31
2023-03-29T03:45:11.269Z,28.29
2023-03-29T03:45:41.302Z,28.31
2023-03-29T03:46:11.326Z,28.31
2023-03-29T03:46:41.375Z,28.35
2023-03-29T03:47:11.369Z,28.32
2023-03-29T03:47:41.536Z,28.34
2023-03-29T03:48:11.553Z,28.36
2023-03-29T03:48:41.542Z,28.34
2023-03-29T03:49:11.664Z,28.34
2023-03-29T03:49:41.664Z,28.32
2023-03-29T03:50:41.753Z,28.40
2023-03-29T03:51:11.778Z,28.41
2023-03-29T03:51:41.776Z,28.41
2023-03-29T03:52:11.894Z,28.49
2023-03-29T03:52:41.930Z,28.49
2023-03-29T03:53:12.047Z,28.47
2023-03-29T03:53:42.049Z,28.47
2023-03-29T03:54:12.175Z,28.49
2023-03-29T03:54:42.168Z,28.61
2023-03-29T03:55:12.284Z,28.56
2023-03-29T03:55:42.405Z,28.53
2023-03-29T03:56:12.405Z,28.56
2023-03-29T03:57:12.566Z,28.67
2023-03-29T03:57:42.600Z,28.72
2023-03-29T03:58:12.595Z,28.65
2023-03-29T03:58:42.717Z,28.72
2023-03-29T03:59:12.834Z,28.57
2023-03-29T03:59:42.883Z,28.57
2023-03-29T04:00:12.881Z,28.54
2023-03-29T04:00:42.964Z,28.47
2023-03-29T04:01:13.057Z,28.44
2023-03-29T04:01:43.134Z,28.34
2023-03-29T04:02:13.246Z,28.29
2023-03-29T04:02:43.311Z,28.33
2023-03-29T04:03:13.377Z,28.27
2023-03-29T04:03:43.316Z,28.36
2023-03-29T04:04:13.342Z,28.25
2023-03-29T04:04:43.273Z,28.20
2023-03-29T04:05:13.359Z,28.22
2023-03-29T04:05:43.443Z,28.15
2023-03-29T04:06:13.526Z,28.12
2023-03-29T04:06:43.940Z,28.09
2023-03-29T04:07:13.621Z,28.04
2023-03-29T04:07:43.987Z,28.04
2023-03-29T04:08:13.833Z,28.04
2023-03-29T04:09:13.939Z,28.17
2023-03-29T04:09:44.025Z,28.05
2023-03-29T04:10:14.100Z,28.12
2023-03-29T04:10:44.209Z,28.02
2023-03-29T04:11:14.335Z,28.02
2023-03-29T04:11:44.453Z,27.99
2023-03-29T04:12:14.588Z,27.86
2023-03-29T04:12:44.582Z,27.87
2023-03-29T04:13:14.629Z,27.83
2023-03-29T04:13:44.615Z,27.94
2023-03-29T04:14:14.746Z,27.90
2023-03-29T04:14:44.738Z,28.05
2023-03-29T04:15:14.854Z,27.96
2023-03-29T04:15:44.873Z,27.91
2023-03-29T04:16:14.900Z,27.93
2023-03-29T04:16:44.922Z,27.96
2023-03-29T04:17:15.036Z,27.97
2023-03-29T04:17:45.236Z,28.02
2023-03-29T04:18:15.360Z,27.93
2023-03-29T04:18:45.422Z,27.99
2023-03-29T04:19:15.336Z,28.01
2023-03-29T04:19:45.343Z,27.82
2023-03-29T04:20:15.453Z,27.81
2023-03-29T04:20:45.558Z,27.84
2023-03-29T04:21:15.675Z,27.85
2023-03-29T04:21:45.793Z,27.63
2023-03-29T04:22:15.922Z,27.35
2023-03-29T04:22:46.047Z,27.31
2023-03-29T04:23:16.048Z,27.29
2023-03-29T04:23:46.145Z,27.29
2023-03-29T04:24:16.270Z,27.29
2023-03-29T04:24:46.256Z,26.95
2023-03-29T04:25:16.386Z,27.16
2023-03-29T04:25:46.492Z,27.01
2023-03-29T04:26:16.605Z,27.06
2023-03-29T04:26:46.613Z,26.94
2023-03-29T04:27:16.760Z,27.24
2023-03-29T04:27:46.858Z,27.33
2023-03-29T04:28:16.857Z,27.04
2023-03-29T04:29:16.920Z,27.17
2023-03-29T04:29:46.914Z,27.36
2023-03-29T04:30:17.033Z,27.51
2023-03-29T04:30:47.348Z,27.46
2023-03-29T04:31:17.298Z,27.42
2023-03-29T04:31:47.385Z,27.51
2023-03-29T04:32:17.416Z,27.58
2023-03-29T04:32:47.428Z,27.49
2023-03-29T04:33:17.524Z,27.60
2023-03-29T04:33:47.571Z,27.70
2023-03-29T04:34:17.533Z,27.64
2023-03-29T04:36:31.888Z,28.30
2023-03-29T04:37:01.955Z,28.03
2023-03-29T04:37:32.035Z,27.78
2023-03-29T04:38:02.116Z,27.71
2023-03-29T04:38:32.193Z,27.85
2023-03-29T04:39:02.274Z,27.72
2023-03-29T04:39:32.355Z,27.75
2023-03-29T04:40:02.466Z,27.71
2023-03-29T04:40:32.569Z,27.47
2023-03-29T04:41:02.825Z,27.44
2023-03-29T04:41:32.705Z,27.59
2023-03-29T04:42:02.792Z,27.56
2023-03-29T04:42:32.937Z,27.50
2023-03-29T04:43:02.868Z,27.55
2023-03-29T04:43:32.948Z,27.49
2023-03-29T04:44:03.041Z,27.60
2023-03-29T04:44:33.211Z,27.46
2023-03-29T04:45:03.231Z,27.54
2023-03-29T04:45:33.195Z,27.52
2023-03-29T04:46:03.307Z,27.63
2023-03-29T04:46:33.390Z,27.54
2023-03-29T04:47:03.401Z,27.53
2023-03-29T04:47:33.425Z,27.54
2023-03-29T04:48:03.481Z,27.73
2023-03-29T04:48:33.481Z,27.74
2023-03-29T04:49:03.590Z,27.73
2023-03-29T04:49:33.607Z,27.76
2023-03-29T04:50:33.662Z,27.78
2023-03-29T04:51:03.924Z,27.73
2023-03-29T04:51:33.825Z,27.91
2023-03-29T04:52:03.945Z,27.84
2023-03-29T04:52:33.941Z,27.90
2023-03-29T04:53:04.077Z,27.87
2023-03-29T04:53:34.053Z,27.92
2023-03-29T04:54:34.122Z,27.87
2023-03-29T04:55:04.118Z,28.06
2023-03-29T04:56:04.219Z,27.95
2023-03-29T04:56:34.220Z,28.00
2023-03-29T04:57:04.289Z,27.97
2023-03-29T04:57:34.317Z,27.92
2023-03-29T04:58:04.325Z,27.86
2023-03-29T04:58:34.346Z,27.82
2023-03-29T04:59:04.465Z,27.83
2023-03-29T04:59:34.592Z,27.74
2023-03-29T05:00:04.592Z,27.77
2023-03-29T05:00:34.591Z,27.73
2023-03-29T05:01:04.781Z,27.64
2023-03-29T05:01:34.651Z,27.70
2023-03-29T05:02:04.743Z,27.70
2023-03-29T05:02:34.781Z,27.71
2023-03-29T05:03:04.842Z,27.79
2023-03-29T05:03:34.856Z,27.73
2023-03-29T05:04:05.067Z,27.73
2023-03-29T05:04:35.076Z,27.88
2023-03-29T05:05:05.097Z,27.76
2023-03-29T05:05:35.075Z,27.65
2023-03-29T05:06:05.195Z,27.59
2023-03-29T05:06:35.192Z,27.53
2023-03-29T05:07:05.310Z,27.53
2023-03-29T05:07:35.300Z,27.59
2023-03-29T05:08:05.439Z,27.53
2023-03-29T05:08:35.430Z,27.44
2023-03-29T05:09:05.543Z,27.50
2023-03-29T05:09:35.737Z,27.55
2023-03-29T05:10:05.708Z,27.64
2023-03-29T05:10:35.822Z,27.67
2023-03-29T05:11:05.938Z,27.53
2023-03-29T05:11:35.930Z,27.41
2023-03-29T05:12:06.066Z,27.33
2023-03-29T05:12:36.085Z,27.51
2023-03-29T05:13:06.125Z,27.44
2023-03-29T05:13:36.114Z,27.41
2023-03-29T05:14:36.228Z,27.47
2023-03-29T05:15:06.358Z,27.36
2023-03-29T05:15:36.360Z,27.59
2023-03-29T05:16:06.493Z,27.57
2023-03-29T05:16:36.519Z,27.34
2023-03-29T05:17:06.565Z,27.46
2023-03-29T05:17:36.578Z,27.55
2023-03-29T05:18:06.692Z,27.55
2023-03-29T05:18:36.661Z,27.61
2023-03-29T05:19:06.781Z,27.75
2023-03-29T05:19:36.905Z,27.61
2023-03-29T05:20:06.885Z,27.74
2023-03-29T05:21:06.961Z,27.72
2023-03-29T05:21:36.975Z,27.75
2023-03-29T05:22:06.965Z,27.78
2023-03-29T05:22:37.079Z,27.72
2023-03-29T05:23:07.202Z,27.77
2023-03-29T05:23:37.220Z,27.86
2023-03-29T05:24:07.345Z,27.75
2023-03-29T05:24:37.513Z,27.57
2023-03-29T05:25:07.517Z,27.54
2023-03-29T05:25:37.636Z,27.49
2023-03-29T05:26:07.752Z,27.59
2023-03-29T05:26:37.884Z,27.75
2023-03-29T05:27:07.868Z,27.77
2023-03-29T05:27:37.987Z,27.33
2023-03-29T05:28:08.098Z,27.38
2023-03-29T05:28:38.173Z,27.41
2023-03-29T05:29:08.149Z,27.33
2023-03-29T05:29:38.271Z,27.68
2023-03-29T05:30:08.378Z,27.39
2023-03-29T05:30:38.498Z,27.55
2023-03-29T05:31:08.719Z,27.29
2023-03-29T05:31:38.659Z,27.37
2023-03-29T05:32:08.867Z,27.52
2023-03-29T05:32:38.852Z,27.38
2023-03-29T05:33:08.920Z,27.61
2023-03-29T05:33:38.894Z,27.54
2023-03-29T05:34:08.885Z,27.42
2023-03-29T05:34:39.002Z,27.32
2023-03-29T05:35:09.117Z,27.56
2023-03-29T05:35:39.265Z,27.42
2023-03-29T05:36:09.275Z,27.47
2023-03-29T05:36:39.364Z,27.59
2023-03-29T05:37:09.453Z,27.55
2023-03-29T05:37:39.533Z,27.52
2023-03-29T05:38:09.619Z,27.64
2023-03-29T05:38:39.698Z,27.61
2023-03-29T05:39:09.789Z,27.73
2023-03-29T05:39:39.864Z,27.77
2023-03-29T05:40:09.947Z,27.74
2023-03-29T05:40:40.035Z,27.87
2023-03-29T05:41:10.118Z,27.82
2023-03-29T05:41:40.194Z,27.87
2023-03-29T05:42:10.276Z,27.78
2023-03-29T05:42:40.360Z,27.70
2023-03-29T05:43:10.435Z,27.73
2023-03-29T05:43:40.543Z,27.70
2023-03-29T05:44:10.596Z,27.82
2023-03-29T05:44:40.678Z,27.72
2023-03-29T05:45:10.745Z,27.57
2023-03-29T05:45:40.855Z,27.61
2023-03-29T05:46:10.880Z,27.52
2023-03-29T05:46:40.874Z,27.47
2023-03-29T05:47:11.039Z,27.69
2023-03-29T05:47:41.101Z,27.57
2023-03-29T05:48:11.159Z,27.60
2023-03-29T05:48:41.150Z,27.83
2023-03-29T05:49:11.273Z,27.64
2023-03-29T05:49:41.282Z,27.81
2023-03-29T05:50:11.449Z,27.63
2023-03-29T05:50:43.244Z,27.52
2023-03-29T05:51:11.514Z,27.64
2023-03-29T05:51:41.647Z,27.63
2023-03-29T05:52:11.661Z,27.57
2023-03-29T05:52:41.673Z,27.74
2023-03-29T05:53:11.697Z,27.57
2023-03-29T05:53:41.718Z,27.64
2023-03-29T05:54:11.707Z,27.61
2023-03-29T05:54:41.711Z,27.67
2023-03-29T05:55:11.842Z,27.50
2023-03-29T05:55:41.842Z,27.57
2023-03-29T05:56:11.964Z,27.66
2023-03-29T05:56:42.014Z,27.70
2023-03-29T05:57:12.068Z,27.70
2023-03-29T05:57:42.102Z,27.63
2023-03-29T05:58:12.222Z,27.64
2023-03-29T05:58:42.354Z,27.75
2023-03-29T05:59:12.385Z,27.75
2023-03-29T05:59:42.376Z,27.69
2023-03-29T06:00:12.493Z,27.80
2023-03-29T06:00:42.612Z,27.72
2023-03-29T06:01:12.623Z,27.72
2023-03-29T06:01:42.738Z,27.76
2023-03-29T06:02:12.881Z,27.66
2023-03-29T06:02:42.937Z,27.60
2023-03-29T06:03:20.241Z,27.68
2023-03-29T06:03:43.038Z,27.81
2023-03-29T06:04:13.007Z,27.89
2023-03-29T06:04:43.066Z,27.77
2023-03-29T06:05:13.116Z,27.89
2023-03-29T06:05:43.228Z,27.71
2023-03-29T06:06:13.225Z,27.83
2023-03-29T06:07:13.304Z,27.88
2023-03-29T06:07:43.301Z,27.61
2023-03-29T06:08:43.385Z,27.58
2023-03-29T06:09:13.410Z,27.55
2023-03-29T06:09:43.376Z,27.22
2023-03-29T06:10:13.503Z,27.42
2023-03-29T06:10:43.500Z,27.40
2023-03-29T06:11:13.608Z,27.31
2023-03-29T06:11:43.739Z,27.53
2023-03-29T06:12:13.751Z,27.49
2023-03-29T06:12:43.797Z,27.55
2023-03-29T06:13:13.889Z,27.58
2023-03-29T06:13:43.901Z,27.43
2023-03-29T06:14:13.940Z,27.43
2023-03-29T06:14:43.928Z,27.39
2023-03-29T06:15:43.944Z,27.64
2023-03-29T06:16:14.072Z,27.51
2023-03-29T06:16:44.202Z,27.55
2023-03-29T06:17:14.259Z,27.56
2023-03-29T06:17:44.372Z,27.77
2023-03-29T06:18:14.367Z,27.71
2023-03-29T06:18:44.483Z,27.77
2023-03-29T06:19:14.483Z,27.72
2023-03-29T06:19:44.639Z,27.76
2023-03-29T06:20:14.726Z,27.88
2023-03-29T06:20:44.833Z,27.87
2023-03-29T06:21:14.952Z,27.59
2023-03-29T06:21:44.959Z,27.59
2023-03-29T06:22:15.132Z,27.56
2023-03-29T06:22:45.114Z,27.37
2023-03-29T06:23:15.113Z,27.38
2023-03-29T06:23:45.246Z,27.41
2023-03-29T06:24:15.323Z,27.29
2023-03-29T06:24:45.324Z,27.27
2023-03-29T06:25:15.451Z,27.35
2023-03-29T06:25:45.558Z,27.52
2023-03-29T06:26:15.670Z,27.38
2023-03-29T06:26:45.663Z,27.41
2023-03-29T06:27:15.785Z,27.50
2023-03-29T06:27:45.900Z,27.60
2023-03-29T06:28:15.898Z,27.48
2023-03-29T06:28:45.912Z,27.54
2023-03-29T06:29:15.969Z,27.42
2023-03-29T06:29:45.929Z,27.36
2023-03-29T06:30:15.950Z,27.45
2023-03-29T06:30:46.095Z,27.50
2023-03-29T06:31:16.208Z,27.42
2023-03-29T06:31:46.372Z,27.54
2023-03-29T06:32:16.295Z,27.66
2023-03-29T06:32:46.462Z,27.54
2023-03-29T06:33:16.445Z,27.59
2023-03-29T06:33:46.439Z,27.53
2023-03-29T06:34:16.551Z,27.45
2023-03-29T06:34:46.695Z,27.44
2023-03-29T06:35:16.673Z,27.69
2023-03-29T06:35:46.682Z,27.53
2023-03-29T06:36:16.880Z,27.53
2023-03-29T06:36:46.843Z,27.63
2023-03-29T06:37:16.932Z,27.64
2023-03-29T06:37:47.016Z,27.71
2023-03-29T06:38:17.103Z,27.58
2023-03-29T06:38:47.199Z,27.70
2023-03-29T06:39:17.290Z,27.73
2023-03-29T06:39:47.367Z,27.60
2023-03-29T06:40:17.473Z,27.70
2023-03-29T06:40:47.541Z,27.68
2023-03-29T06:41:17.623Z,27.53
2023-03-29T06:41:47.703Z,27.65
2023-03-29T06:42:21.525Z,27.74
2023-03-29T06:42:47.839Z,27.64
2023-03-29T06:43:17.916Z,27.73
2023-03-29T06:43:48.003Z,27.76
2023-03-29T06:44:18.104Z,27.56
2023-03-29T06:44:48.161Z,27.59
2023-03-29T06:45:18.237Z,27.66
2023-03-29T06:45:48.311Z,27.47
2023-03-29T06:46:18.474Z,27.46
2023-03-29T06:46:48.604Z,27.55
2023-03-29T06:47:18.514Z,27.57
2023-03-29T06:47:48.557Z,27.38
2023-03-29T06:48:18.556Z,27.52
2023-03-29T06:48:48.672Z,27.60
2023-03-29T06:49:18.664Z,27.63
2023-03-29T06:49:48.664Z,27.57
2023-03-29T06:50:18.783Z,27.55
2023-03-29T06:50:48.795Z,27.59
2023-03-29T06:51:20.578Z,27.53
2023-03-29T06:51:48.802Z,27.47
2023-03-29T06:52:18.803Z,27.47
2023-03-29T06:52:48.926Z,27.55
2023-03-29T06:53:18.957Z,27.58
2023-03-29T06:53:48.962Z,27.58
2023-03-29T06:54:18.965Z,27.49
2023-03-29T06:54:49.084Z,27.37
2023-03-29T06:55:19.219Z,27.49